createdAt,value
2019-02-14T00:00:38.554Z,8.30
2019-02-14T00:03:08.083Z,8.30
2019-02-14T00:05:37.616Z,8.30
2019-02-14T00:08:07.135Z,8.30
2019-02-14T00:10:36.651Z,8.30
2019-02-14T00:13:06.174Z,8.30
2019-02-14T00:15:35.764Z,8.20
2019-02-14T00:18:05.675Z,8.20
2019-02-14T00:20:35.171Z,8.20
2019-02-14T00:23:04.710Z,8.20
2019-02-14T00:25:34.278Z,8.10
2019-02-14T00:28:03.791Z,8.10
2019-02-14T00:30:33.315Z,8.10
2019-02-14T00:33:02.818Z,8.10
2019-02-14T00:35:32.398Z,8.10
2019-02-14T00:38:01.908Z,8.10
2019-02-14T00:40:31.442Z,8.10
2019-02-14T00:43:00.943Z,8.00
2019-02-14T00:45:30.446Z,8.00
2019-02-14T00:48:02.098Z,8.00
2019-02-14T00:50:31.603Z,8.00
2019-02-14T00:53:01.136Z,8.00
2019-02-14T00:55:31.646Z,7.90
2019-02-14T00:58:01.170Z,7.90
2019-02-14T01:00:30.676Z,7.90
2019-02-14T01:03:00.202Z,7.90
2019-02-14T01:05:33.639Z,7.90
2019-02-14T01:08:00.894Z,7.90
2019-02-14T01:10:30.390Z,7.90
2019-02-14T01:12:59.962Z,7.90
2019-02-14T01:15:29.551Z,7.80
2019-02-14T01:17:59.167Z,7.80
2019-02-14T01:20:28.663Z,7.80
2019-02-14T01:22:59.972Z,7.80
2019-02-14T01:25:29.516Z,7.80
2019-02-14T01:27:59.023Z,7.80
2019-02-14T01:30:28.527Z,7.70
2019-02-14T01:32:58.059Z,7.70
2019-02-14T01:35:27.563Z,7.70
2019-02-14T01:37:57.082Z,7.70
2019-02-14T01:40:26.617Z,7.70
2019-02-14T01:42:56.114Z,7.70
2019-02-14T01:45:25.623Z,7.70
2019-02-14T01:47:55.155Z,7.70
2019-02-14T01:50:24.778Z,7.60
2019-02-14T01:52:54.769Z,7.60
2019-02-14T01:55:24.283Z,7.60
2019-02-14T01:57:53.903Z,7.60
2019-02-14T02:00:42.433Z,7.60
2019-02-14T02:03:11.967Z,7.60
2019-02-14T02:05:50.610Z,7.60
2019-02-14T02:08:14.443Z,7.50
2019-02-14T02:10:43.984Z,7.50
2019-02-14T02:13:13.520Z,7.50
2019-02-14T02:15:43.130Z,7.50
2019-02-14T02:18:12.679Z,7.50
2019-02-14T02:20:42.183Z,7.50
2019-02-14T02:23:11.685Z,7.50
2019-02-14T02:25:41.227Z,7.40
2019-02-14T02:28:10.748Z,7.40
2019-02-14T02:30:41.347Z,7.40
2019-02-14T02:33:10.868Z,7.40
2019-02-14T02:35:41.387Z,7.40
2019-02-14T02:38:10.910Z,7.40
2019-02-14T02:40:41.895Z,7.40
2019-02-14T02:43:11.507Z,7.30
2019-02-14T02:45:41.014Z,7.30
2019-02-14T02:48:10.516Z,7.30
2019-02-14T02:50:40.050Z,7.30
2019-02-14T02:53:09.578Z,7.30
2019-02-14T02:55:39.066Z,7.30
2019-02-14T02:58:08.591Z,7.30
2019-02-14T03:00:38.128Z,7.30
2019-02-14T03:03:09.472Z,7.30
2019-02-14T03:05:40.434Z,7.20
2019-02-14T03:08:09.936Z,7.20
2019-02-14T03:10:39.482Z,7.20
2019-02-14T03:13:09.040Z,7.20
2019-02-14T03:15:40.345Z,7.20
2019-02-14T03:18:09.879Z,7.20
2019-02-14T03:20:39.376Z,7.20
2019-02-14T03:23:08.888Z,7.20
2019-02-14T03:25:38.407Z,7.20
2019-02-14T03:28:07.911Z,7.20
2019-02-14T03:30:37.475Z,7.10
2019-02-14T03:33:06.987Z,7.10
2019-02-14T03:35:36.567Z,7.10
2019-02-14T03:38:06.177Z,7.10
2019-02-14T03:40:36.086Z,7.10
2019-02-14T03:43:05.590Z,7.10
2019-02-14T03:45:35.129Z,7.00
2019-02-14T03:48:04.710Z,7.00
2019-02-14T03:50:34.251Z,7.00
2019-02-14T03:53:03.814Z,7.00
2019-02-14T03:55:33.431Z,7.00
2019-02-14T03:58:04.758Z,7.00
2019-02-14T04:00:34.292Z,7.00
2019-02-14T04:03:03.802Z,7.00
2019-02-14T04:05:33.335Z,7.00
2019-02-14T04:08:02.835Z,6.90
2019-02-14T04:10:32.376Z,6.90
2019-02-14T04:13:01.887Z,6.90
2019-02-14T04:15:31.507Z,6.90
2019-02-14T04:18:01.047Z,6.90
2019-02-14T04:20:30.646Z,6.90
2019-02-14T04:23:00.174Z,6.90
2019-02-14T04:25:29.687Z,6.90
2019-02-14T04:27:59.196Z,6.90
2019-02-14T04:30:28.719Z,6.80
2019-02-14T04:32:58.220Z,6.80
2019-02-14T04:35:27.747Z,6.80
2019-02-14T04:37:57.334Z,6.80
2019-02-14T04:40:33.462Z,6.80
2019-02-14T04:42:59.148Z,6.80
2019-02-14T04:45:28.646Z,6.80
2019-02-14T04:47:58.147Z,6.80
2019-02-14T04:50:27.696Z,6.80
2019-02-14T04:52:57.231Z,6.80
2019-02-14T04:55:26.733Z,6.80
2019-02-14T04:57:56.258Z,6.70
2019-02-14T05:00:27.235Z,6.70
2019-02-14T05:02:56.759Z,6.70
2019-02-14T05:05:26.281Z,6.70
2019-02-14T05:07:55.819Z,6.70
2019-02-14T05:10:25.394Z,6.70
2019-02-14T05:12:54.890Z,6.70
2019-02-14T05:15:25.517Z,6.70
2019-02-14T05:17:55.043Z,6.70
2019-02-14T05:20:24.658Z,6.60
2019-02-14T05:22:54.170Z,6.60
2019-02-14T05:25:23.705Z,6.60
2019-02-14T05:27:53.248Z,6.60
2019-02-14T05:30:22.779Z,6.60
2019-02-14T05:32:52.313Z,6.60
2019-02-14T05:35:21.818Z,6.60
2019-02-14T05:37:51.310Z,6.60
2019-02-14T05:40:20.852Z,6.60
2019-02-14T05:42:50.350Z,6.60
2019-02-14T05:45:19.943Z,6.60
2019-02-14T05:47:49.951Z,6.50
2019-02-14T05:50:19.860Z,6.50
2019-02-14T05:52:49.459Z,6.50
2019-02-14T05:55:18.995Z,6.50
2019-02-14T05:57:49.703Z,6.50
2019-02-14T06:00:19.881Z,6.50
2019-02-14T06:02:50.515Z,6.50
2019-02-14T06:05:20.023Z,6.50
2019-02-14T06:07:51.323Z,6.50
2019-02-14T06:10:22.650Z,6.50
2019-02-14T06:12:52.150Z,6.50
2019-02-14T06:15:21.682Z,6.40
2019-02-14T06:17:51.202Z,6.40
2019-02-14T06:20:20.710Z,6.40
2019-02-14T06:22:50.247Z,6.40
2019-02-14T06:25:19.751Z,6.40
2019-02-14T06:27:49.267Z,6.40
2019-02-14T06:30:18.803Z,6.40
2019-02-14T06:32:48.315Z,6.40
2019-02-14T06:35:17.818Z,6.40
2019-02-14T06:37:47.357Z,6.40
2019-02-14T06:40:16.859Z,6.40
2019-02-14T06:42:46.390Z,6.30
2019-02-14T06:45:17.856Z,6.40
2019-02-14T06:47:47.371Z,6.40
2019-02-14T06:50:16.883Z,6.40
2019-02-14T06:52:46.402Z,6.40
2019-02-14T06:55:15.933Z,6.40
2019-02-14T06:57:45.448Z,6.40
2019-02-14T07:00:15.739Z,6.40
2019-02-14T07:02:47.090Z,6.30
2019-02-14T07:05:16.594Z,6.40
2019-02-14T07:07:46.124Z,6.40
2019-02-14T07:10:15.662Z,6.40
2019-02-14T07:12:45.175Z,6.30
2019-02-14T07:15:14.687Z,6.30
2019-02-14T07:17:44.203Z,6.40
2019-02-14T07:20:14.545Z,6.40
2019-02-14T07:22:44.218Z,6.40
2019-02-14T07:25:14.108Z,6.40
2019-02-14T07:27:43.679Z,6.40
2019-02-14T07:30:15.794Z,6.40
2019-02-14T07:32:46.814Z,6.40
2019-02-14T07:35:17.913Z,6.40
2019-02-14T07:37:49.119Z,6.40
2019-02-14T07:40:20.457Z,6.40
2019-02-14T07:42:51.657Z,6.40
2019-02-14T07:45:22.413Z,6.40
2019-02-14T07:47:53.448Z,6.40
2019-02-14T07:50:24.428Z,6.50
2019-02-14T07:52:55.443Z,6.50
2019-02-14T07:55:26.708Z,6.50
2019-02-14T07:57:57.818Z,6.50
2019-02-14T08:00:29.126Z,6.50
2019-02-14T08:03:00.415Z,6.60
2019-02-14T08:05:31.382Z,6.60
2019-02-14T08:08:02.871Z,6.60
2019-02-14T08:10:34.325Z,6.60
2019-02-14T08:13:05.651Z,6.70
2019-02-14T08:15:36.223Z,6.70
2019-02-14T08:18:07.122Z,6.70
2019-02-14T08:20:42.163Z,6.70
2019-02-14T08:23:15.900Z,6.80
2019-02-14T08:25:49.417Z,6.80
2019-02-14T08:28:24.473Z,6.80
2019-02-14T08:30:57.477Z,6.90
2019-02-14T08:33:30.885Z,6.90
2019-02-14T08:36:04.798Z,7.00
2019-02-14T08:38:37.836Z,7.00
2019-02-14T08:41:12.329Z,7.10
2019-02-14T08:43:45.358Z,7.10
2019-02-14T08:46:19.863Z,7.20
2019-02-14T08:48:52.805Z,7.30
2019-02-14T08:51:26.432Z,7.30
2019-02-14T08:54:00.918Z,7.40
2019-02-14T08:56:34.532Z,7.40
2019-02-14T08:59:08.494Z,7.50
2019-02-14T09:01:42.915Z,7.60
2019-02-14T09:04:17.097Z,7.70
2019-02-14T09:06:51.022Z,7.70
2019-02-14T09:09:24.463Z,7.80
2019-02-14T09:11:58.879Z,7.90
2019-02-14T09:14:31.837Z,7.90
2019-02-14T09:17:05.010Z,8.00
2019-02-14T09:19:39.525Z,8.10
2019-02-14T09:22:15.771Z,8.10
2019-02-14T09:24:49.160Z,8.20
2019-02-14T09:27:25.712Z,8.20
2019-02-14T09:29:58.945Z,8.30
2019-02-14T09:32:32.623Z,8.30
2019-02-14T09:35:08.150Z,8.30
2019-02-14T09:37:41.151Z,8.40
2019-02-14T09:40:14.824Z,8.40
2019-02-14T09:42:48.197Z,8.50
2019-02-14T09:45:21.757Z,8.50
2019-02-14T09:47:57.768Z,8.60
2019-02-14T09:50:31.112Z,8.60
2019-02-14T09:53:05.787Z,8.70
2019-02-14T09:55:39.313Z,8.70
2019-02-14T09:58:13.102Z,8.80
2019-02-14T10:00:43.974Z,8.90
2019-02-14T10:03:16.708Z,9.00
2019-02-14T10:05:48.324Z,9.10
2019-02-14T10:08:20.544Z,9.10
2019-02-14T10:10:51.385Z,9.20
2019-02-14T10:13:22.282Z,9.30
2019-02-14T10:15:53.777Z,9.40
2019-02-14T10:18:24.588Z,9.40
2019-02-14T10:20:55.896Z,9.50
2019-02-14T10:23:26.715Z,9.60
2019-02-14T10:25:57.273Z,9.70
2019-02-14T10:28:28.261Z,9.80
2019-02-14T10:30:59.210Z,9.90
2019-02-14T10:33:30.816Z,10.00
2019-02-14T10:36:04.182Z,10.00
2019-02-14T10:38:34.957Z,10.10
2019-02-14T10:41:06.171Z,10.20
2019-02-14T10:43:36.315Z,10.30
2019-02-14T10:46:07.817Z,10.30
2019-02-14T10:48:39.084Z,10.40
2019-02-14T10:51:10.456Z,10.50
2019-02-14T10:53:42.646Z,10.60
2019-02-14T10:56:13.935Z,10.70
2019-02-14T10:58:44.352Z,10.80
2019-02-14T11:01:16.773Z,10.80
2019-02-14T11:03:47.855Z,10.90
2019-02-14T11:06:19.411Z,10.90
2019-02-14T11:08:50.922Z,11.00
2019-02-14T11:11:22.444Z,11.10
2019-02-14T11:13:51.972Z,11.20
2019-02-14T11:16:24.569Z,11.20
2019-02-14T11:18:55.619Z,11.30
2019-02-14T11:21:26.391Z,11.40
2019-02-14T11:23:57.219Z,11.40
2019-02-14T11:26:28.690Z,11.40
2019-02-14T11:28:59.581Z,11.50
2019-02-14T11:31:30.911Z,11.60
2019-02-14T11:34:02.297Z,11.60
2019-02-14T11:36:33.755Z,11.70
2019-02-14T11:39:06.875Z,11.70
2019-02-14T11:41:38.000Z,11.80
2019-02-14T11:44:07.531Z,11.80
2019-02-14T11:46:37.695Z,11.90
2019-02-14T11:49:07.667Z,12.00
2019-02-14T11:51:38.203Z,12.00
2019-02-14T11:54:09.485Z,12.10
2019-02-14T11:56:39.617Z,12.20
2019-02-14T11:59:09.241Z,12.20
2019-02-14T12:01:40.819Z,12.30
2019-02-14T12:04:10.535Z,12.40
2019-02-14T12:06:41.941Z,12.40
2019-02-14T12:09:12.744Z,12.50
2019-02-14T12:11:44.091Z,12.60
2019-02-14T12:14:13.582Z,12.60
2019-02-14T12:16:45.455Z,12.70
2019-02-14T12:19:17.015Z,12.80
2019-02-14T12:21:48.252Z,12.90
2019-02-14T12:24:17.943Z,13.00
2019-02-14T12:26:49.307Z,13.20
2019-02-14T12:29:18.738Z,13.30
2019-02-14T12:31:50.662Z,13.50
2019-02-14T12:34:22.029Z,13.60
2019-02-14T12:36:53.380Z,13.80
2019-02-14T12:39:24.756Z,14.00
2019-02-14T12:41:55.994Z,14.20
2019-02-14T12:44:25.557Z,14.40
2019-02-14T12:46:56.954Z,14.60
2019-02-14T12:49:28.106Z,14.80
2019-02-14T12:51:57.728Z,15.00
2019-02-14T12:54:28.854Z,15.20
2019-02-14T12:57:00.407Z,15.40
2019-02-14T12:59:31.067Z,15.60
2019-02-14T13:02:01.838Z,15.70
2019-02-14T13:04:31.467Z,15.90
2019-02-14T13:07:02.010Z,16.10
2019-02-14T13:09:35.023Z,16.30
2019-02-14T13:12:05.568Z,16.50
2019-02-14T13:14:36.882Z,16.70
2019-02-14T13:17:10.970Z,16.80
2019-02-14T13:19:41.947Z,17.00
2019-02-14T13:22:13.020Z,17.20
2019-02-14T13:24:43.841Z,17.40
2019-02-14T13:27:13.483Z,17.60
2019-02-14T13:29:45.002Z,17.70
2019-02-14T13:32:16.051Z,17.90
2019-02-14T13:34:47.241Z,18.00
2019-02-14T13:37:18.051Z,18.20
2019-02-14T13:39:48.455Z,18.30
2019-02-14T13:42:20.084Z,18.40
2019-02-14T13:44:51.298Z,18.50
2019-02-14T13:47:22.320Z,18.60
2019-02-14T13:49:53.294Z,18.70
2019-02-14T13:52:24.151Z,18.80
2019-02-14T13:54:55.215Z,18.90
2019-02-14T13:57:26.969Z,18.90
2019-02-14T13:59:57.646Z,19.00
2019-02-14T14:02:29.113Z,19.00
2019-02-14T14:05:00.670Z,19.00
2019-02-14T14:07:40.197Z,19.10
2019-02-14T14:10:04.290Z,19.10
2019-02-14T14:12:35.750Z,19.00
2019-02-14T14:15:07.806Z,19.00
2019-02-14T14:17:38.911Z,19.00
2019-02-14T14:20:10.241Z,19.00
2019-02-14T14:22:41.243Z,19.00
2019-02-14T14:25:10.911Z,19.00
2019-02-14T14:27:41.655Z,18.90
2019-02-14T14:30:13.132Z,18.90
2019-02-14T14:32:43.478Z,18.80
2019-02-14T14:35:14.843Z,18.80
2019-02-14T14:37:46.240Z,18.70
2019-02-14T14:40:17.795Z,18.70
2019-02-14T14:43:06.935Z,18.60
2019-02-14T14:45:56.412Z,18.60
2019-02-14T14:48:30.415Z,18.50
2019-02-14T14:51:01.660Z,18.40
2019-02-14T14:53:32.178Z,18.40
2019-02-14T14:56:02.947Z,18.30
2019-02-14T14:58:33.937Z,18.20
2019-02-14T15:01:05.835Z,18.20
2019-02-14T15:03:36.985Z,18.10
2019-02-14T15:06:08.014Z,18.10
2019-02-14T15:08:38.941Z,18.00
2019-02-14T15:11:09.535Z,17.90
2019-02-14T15:13:39.328Z,17.90
2019-02-14T15:16:10.106Z,17.80
2019-02-14T15:18:41.345Z,17.80
2019-02-14T15:21:12.357Z,17.80
2019-02-14T15:23:43.175Z,17.70
2019-02-14T15:26:14.284Z,17.60
2019-02-14T15:28:46.528Z,17.60
2019-02-14T15:31:17.442Z,17.60
2019-02-14T15:33:48.890Z,17.50
2019-02-14T15:36:21.625Z,17.50
2019-02-14T15:38:53.047Z,17.40
2019-02-14T15:41:25.753Z,17.40
2019-02-14T15:43:56.745Z,17.30
2019-02-14T15:46:27.605Z,17.30
2019-02-14T15:48:59.272Z,17.20
2019-02-14T15:51:31.217Z,17.20
2019-02-14T15:54:04.247Z,17.20
2019-02-14T15:56:35.587Z,17.10
2019-02-14T15:59:24.132Z,17.10
2019-02-14T16:01:54.978Z,17.00
2019-02-14T16:04:27.084Z,16.90
2019-02-14T16:06:58.585Z,16.90
2019-02-14T16:09:29.788Z,16.80
2019-02-14T16:11:59.370Z,16.70
2019-02-14T16:14:30.594Z,16.70
2019-02-14T16:17:01.807Z,16.60
2019-02-14T16:19:34.560Z,16.50
2019-02-14T16:22:05.803Z,16.50
2019-02-14T16:24:38.618Z,16.40
2019-02-14T16:27:09.175Z,16.30
2019-02-14T16:29:38.808Z,16.20
2019-02-14T16:32:11.384Z,16.20
2019-02-14T16:34:43.071Z,16.10
2019-02-14T16:37:14.078Z,16.00
2019-02-14T16:39:51.616Z,16.00
2019-02-14T16:42:18.597Z,15.90
2019-02-14T16:44:49.536Z,15.80
2019-02-14T16:47:20.766Z,15.80
2019-02-14T16:49:52.043Z,15.70
2019-02-14T16:52:23.356Z,15.60
2019-02-14T16:54:54.769Z,15.50
2019-02-14T16:57:25.943Z,15.50
2019-02-14T16:59:59.077Z,15.40
2019-02-14T17:02:28.707Z,15.30
2019-02-14T17:05:01.312Z,15.20
2019-02-14T17:07:32.594Z,15.20
2019-02-14T17:10:04.497Z,15.10
2019-02-14T17:12:35.922Z,15.00
2019-02-14T17:15:06.834Z,14.90
2019-02-14T17:17:38.126Z,14.90
2019-02-14T17:20:10.523Z,14.80
2019-02-14T17:22:41.623Z,14.70
2019-02-14T17:25:12.835Z,14.60
2019-02-14T17:27:44.485Z,14.60
2019-02-14T17:30:14.093Z,14.50
2019-02-14T17:32:45.487Z,14.40
2019-02-14T17:35:16.358Z,14.40
2019-02-14T17:37:47.574Z,14.30
2019-02-14T17:40:18.950Z,14.20
2019-02-14T17:42:49.567Z,14.20
2019-02-14T17:45:19.365Z,14.10
2019-02-14T17:47:50.461Z,14.00
2019-02-14T17:50:21.592Z,14.00
2019-02-14T17:52:52.724Z,13.90
2019-02-14T17:55:23.789Z,13.90
2019-02-14T17:57:54.907Z,13.80
2019-02-14T18:00:26.747Z,13.70
2019-02-14T18:02:57.911Z,13.70
2019-02-14T18:05:28.835Z,13.60
2019-02-14T18:08:00.134Z,13.50
2019-02-14T18:10:31.114Z,13.50
2019-02-14T18:13:01.257Z,13.40
2019-02-14T18:15:32.434Z,13.40
2019-02-14T18:18:03.660Z,13.30
2019-02-14T18:20:35.110Z,13.30
2019-02-14T18:23:06.451Z,13.20
2019-02-14T18:25:37.277Z,13.20
2019-02-14T18:28:07.289Z,13.10
2019-02-14T18:30:38.535Z,13.10
2019-02-14T18:33:09.521Z,13.00
2019-02-14T18:35:40.373Z,13.00
2019-02-14T18:38:11.378Z,12.90
2019-02-14T18:40:43.007Z,12.90
2019-02-14T18:43:15.461Z,12.80
2019-02-14T18:45:46.781Z,12.80
2019-02-14T18:48:17.919Z,12.70
2019-02-14T18:50:49.277Z,12.70
2019-02-14T18:53:20.380Z,12.60
2019-02-14T18:55:51.792Z,12.60
2019-02-14T18:58:26.349Z,12.50
2019-02-14T19:00:54.896Z,12.50
2019-02-14T19:03:26.178Z,12.40
2019-02-14T19:05:57.847Z,12.40
2019-02-14T19:08:29.560Z,12.40
2019-02-14T19:11:00.365Z,12.30
2019-02-14T19:13:31.106Z,12.30
2019-02-14T19:16:02.319Z,12.20
2019-02-14T19:18:33.594Z,12.20
2019-02-14T19:21:04.572Z,12.20
2019-02-14T19:23:35.722Z,12.10
2019-02-14T19:26:08.755Z,12.10
2019-02-14T19:28:40.894Z,12.00
2019-02-14T19:31:11.759Z,12.00
2019-02-14T19:33:42.827Z,11.90
2019-02-14T19:36:14.472Z,11.90
2019-02-14T19:38:45.379Z,11.90
2019-02-14T19:41:25.084Z,11.80
2019-02-14T19:43:48.129Z,11.80
2019-02-14T19:46:19.245Z,11.70
2019-02-14T19:48:50.818Z,11.70
2019-02-14T19:51:22.728Z,11.70
2019-02-14T19:53:54.100Z,11.60
2019-02-14T19:56:24.442Z,11.60
2019-02-14T19:58:54.282Z,11.50
2019-02-14T20:01:24.323Z,11.50
2019-02-14T20:03:55.001Z,11.50
2019-02-14T20:06:26.053Z,11.40
2019-02-14T20:08:57.478Z,11.40
2019-02-14T20:11:36.192Z,11.40
2019-02-14T20:14:00.428Z,11.30
2019-02-14T20:16:31.577Z,11.30
2019-02-14T20:19:02.630Z,11.20
2019-02-14T20:21:33.793Z,11.20
2019-02-14T20:24:04.900Z,11.20
2019-02-14T20:26:36.098Z,11.10
2019-02-14T20:29:07.235Z,11.10
2019-02-14T20:31:38.470Z,11.10
2019-02-14T20:34:09.706Z,11.00
2019-02-14T20:36:41.715Z,11.00
2019-02-14T20:39:12.763Z,11.00
2019-02-14T20:41:46.321Z,10.90
2019-02-14T20:44:16.115Z,10.90
2019-02-14T20:46:47.210Z,10.90
2019-02-14T20:49:18.937Z,10.80
2019-02-14T20:51:49.942Z,10.80
2019-02-14T20:54:19.645Z,10.80
2019-02-14T20:56:50.149Z,10.70
2019-02-14T20:59:21.795Z,10.70
2019-02-14T21:01:53.126Z,10.60
2019-02-14T21:04:24.339Z,10.60
2019-02-14T21:06:54.086Z,10.60
2019-02-14T21:09:25.401Z,10.60
2019-02-14T21:11:57.324Z,10.50
2019-02-14T21:14:26.984Z,10.50
2019-02-14T21:16:57.786Z,10.50
2019-02-14T21:19:29.177Z,10.40
2019-02-14T21:22:01.876Z,10.40
2019-02-14T21:24:33.151Z,10.40
2019-02-14T21:27:04.512Z,10.30
2019-02-14T21:29:34.164Z,10.30
2019-02-14T21:32:05.232Z,10.30
2019-02-14T21:34:35.594Z,10.20
2019-02-14T21:37:06.639Z,10.20
2019-02-14T21:39:37.567Z,10.20
2019-02-14T21:42:19.562Z,10.20
2019-02-14T21:44:40.812Z,10.10
2019-02-14T21:47:12.401Z,10.10
2019-02-14T21:49:43.348Z,10.10
2019-02-14T21:52:14.833Z,10.10
2019-02-14T21:54:46.445Z,10.00
2019-02-14T21:57:17.313Z,10.00
2019-02-14T21:59:47.003Z,10.00
2019-02-14T22:02:18.252Z,9.90
2019-02-14T22:04:49.581Z,9.90
2019-02-14T22:07:20.713Z,9.90
2019-02-14T22:09:50.918Z,9.90
2019-02-14T22:12:38.372Z,9.80
2019-02-14T22:14:54.840Z,9.80
2019-02-14T22:17:26.264Z,9.70
2019-02-14T22:19:57.312Z,9.70
2019-02-14T22:22:28.464Z,9.70
2019-02-14T22:24:59.222Z,9.70
2019-02-14T22:27:30.097Z,9.70
2019-02-14T22:29:59.582Z,9.60
2019-02-14T22:32:30.430Z,9.60
2019-02-14T22:35:01.888Z,9.60
2019-02-14T22:37:33.401Z,9.60
2019-02-14T22:40:04.467Z,9.50
2019-02-14T22:42:35.561Z,9.50
2019-02-14T22:45:05.237Z,9.50
2019-02-14T22:47:34.783Z,9.50
2019-02-14T22:50:06.169Z,9.40
2019-02-14T22:52:37.764Z,9.40
2019-02-14T22:55:09.309Z,9.40
2019-02-14T22:57:40.654Z,9.40
2019-02-14T23:00:18.277Z,9.40
2019-02-14T23:02:49.713Z,9.30
2019-02-14T23:05:20.413Z,9.30
2019-02-14T23:07:52.624Z,9.30
2019-02-14T23:10:23.825Z,9.30
2019-02-14T23:12:56.237Z,9.20
2019-02-14T23:15:27.644Z,9.20
2019-02-14T23:17:58.522Z,9.20
2019-02-14T23:20:30.145Z,9.20
2019-02-14T23:23:01.111Z,9.20
2019-02-14T23:25:32.031Z,9.20
2019-02-14T23:28:03.021Z,9.10
2019-02-14T23:30:34.430Z,9.10
2019-02-14T23:33:04.904Z,9.10
2019-02-14T23:35:34.684Z,9.10
2019-02-14T23:38:05.632Z,9.10
2019-02-14T23:40:37.145Z,9.00
2019-02-14T23:43:07.943Z,9.10
2019-02-14T23:45:40.565Z,9.00
2019-02-14T23:48:11.524Z,9.00
2019-02-14T23:50:43.155Z,9.00
2019-02-14T23:53:14.005Z,9.00
2019-02-14T23:55:44.808Z,8.90
2019-02-14T23:58:15.481Z,8.90
